Time;durP1;ratioP1;P1;durP2;ratioP2;P2;SDS_P1;SDS_P2;PMS_P1;PMS_P2;Temp;Humidity;BMP_temperature;BMP_pressure;BME280_temperature;BME280_humidity;BME280_pressure;Samples;Min_cycle;Max_cycle;Signal;HPM_P1;HPM_P2
2022/09/17 00:00:47;;;;;;;8.90;3.87;;;10.90;65.20;;;;;;5051834;28;46279;-64
2022/09/17 00:03:13;;;;;;;5.60;3.80;;;10.80;65.20;;;;;;5051300;28;47143;-64
2022/09/17 00:05:39;;;;;;;8.47;3.20;;;10.80;65.20;;;;;;5050359;28;45866;-64
2022/09/17 00:08:06;;;;;;;8.23;4.10;;;10.80;65.20;;;;;;5050829;28;46456;-65
2022/09/17 00:10:36;;;;;;;10.30;3.53;;;10.90;64.90;;;;;;5044761;28;46397;-64
2022/09/17 00:13:03;;;;;;;6.70;3.70;;;11.00;64.40;;;;;;5047092;28;46367;-64
2022/09/17 00:15:29;;;;;;;9.43;3.70;;;11.10;63.90;;;;;;5045967;28;46295;-64
2022/09/17 00:17:56;;;;;;;11.00;3.80;;;11.10;63.70;;;;;;5045693;28;45818;-64
2022/09/17 00:20:23;;;;;;;11.10;4.67;;;11.10;63.80;;;;;;5049629;28;46291;-65
2022/09/17 00:22:49;;;;;;;9.23;3.33;;;11.10;64.00;;;;;;5050528;28;46186;-65
2022/09/17 00:25:15;;;;;;;5.53;3.80;;;11.10;64.30;;;;;;5048729;28;46330;-64
2022/09/17 00:27:41;;;;;;;5.20;4.00;;;11.10;64.30;;;;;;5048083;28;46579;-64
2022/09/17 00:30:07;;;;;;;5.47;3.80;;;11.10;64.10;;;;;;5046894;28;46388;-63
2022/09/17 00:32:33;;;;;;;6.03;3.43;;;11.10;63.90;;;;;;5048829;28;46682;-64
2022/09/17 00:34:58;;;;;;;6.17;3.20;;;11.10;64.00;;;;;;5047566;28;46480;-64
2022/09/17 00:37:24;;;;;;;4.90;3.40;;;11.10;64.00;;;;;;5049109;28;46389;-64
2022/09/17 00:39:50;;;;;;;5.50;3.13;;;11.10;64.10;;;;;;5048223;28;46634;-64
2022/09/17 00:42:17;;;;;;;5.33;3.07;;;11.00;64.10;;;;;;5048003;28;46001;-64
2022/09/17 00:45:01;;;;;;;6.40;2.63;;;10.90;64.50;;;;;;5031958;28;46456;-64
2022/09/17 00:47:33;;;;;;;5.53;2.83;;;10.80;65.20;;;;;;5047012;28;45781;-63
2022/09/17 00:50:07;;;;;;;5.50;2.57;;;10.80;65.20;;;;;;5049827;28;46568;-64
2022/09/17 00:52:38;;;;;;;5.50;2.93;;;10.80;65.20;;;;;;5047434;28;47223;-64
2022/09/17 00:55:30;;;;;;;6.33;2.43;;;10.80;65.20;;;;;;5058814;28;46393;-64
2022/09/17 00:58:00;;;;;;;4.67;2.47;;;10.80;65.20;;;;;;5060785;28;45842;-64
2022/09/17 01:00:27;;;;;;;4.37;2.50;;;10.80;65.20;;;;;;5052532;28;46390;-64
2022/09/17 01:02:53;;;;;;;3.73;2.53;;;10.80;65.20;;;;;;5053802;28;46417;-64
2022/09/17 01:05:46;;;;;;;4.10;2.40;;;10.80;65.20;;;;;;5051259;28;46333;-64
2022/09/17 01:08:39;;;;;;;2.97;1.70;;;10.80;65.20;;;;;;5046372;28;46378;-63
2022/09/17 01:11:30;;;;;;;3.33;2.33;;;10.80;65.10;;;;;;5058434;28;46333;-64
2022/09/17 01:14:13;;;;;;;4.87;2.23;;;10.90;65.20;;;;;;5047623;28;46410;-63
2022/09/17 01:17:13;;;;;;;5.33;2.27;;;10.90;65.10;;;;;;5057653;28;46514;-64
2022/09/17 01:20:08;;;;;;;3.33;2.67;;;10.90;64.70;;;;;;5050282;28;45857;-63
2022/09/17 01:22:53;;;;;;;3.17;2.10;;;10.90;64.40;;;;;;5049599;28;46391;-63
2022/09/17 01:25:31;;;;;;;3.30;2.37;;;10.90;65.50;;;;;;5049813;28;47294;-64
2022/09/17 01:28:32;;;;;;;5.90;2.43;;;11.00;64.40;;;;;;5057705;28;46433;-65
2022/09/17 01:31:13;;;;;;;9.03;2.27;;;11.00;64.00;;;;;;5049940;28;46417;-64
2022/09/17 01:33:51;;;;;;;4.70;2.43;;;11.10;63.90;;;;;;5051796;28;46442;-63
2022/09/17 01:36:34;;;;;;;4.23;2.47;;;11.10;63.70;;;;;;5050623;28;46445;-63
2022/09/17 01:39:23;;;;;;;5.93;2.70;;;11.10;63.50;;;;;;5053886;28;46381;-64
2022/09/17 01:42:17;;;;;;;6.13;2.77;;;11.20;63.60;;;;;;5052833;28;46380;-64
2022/09/17 01:44:59;;;;;;;4.17;2.97;;;11.20;63.50;;;;;;5051819;28;46519;-63
2022/09/17 01:47:31;;;;;;;4.63;2.77;;;11.20;63.40;;;;;;5053048;28;47075;-64
2022/09/17 01:50:04;;;;;;;3.17;2.47;;;11.20;63.80;;;;;;5048779;28;46314;-64
2022/09/17 01:52:34;;;;;;;6.17;2.90;;;11.20;63.70;;;;;;5052848;28;46349;-64
2022/09/17 01:55:07;;;;;;;4.47;3.10;;;11.20;63.80;;;;;;5050516;28;46358;-64
2022/09/17 01:57:40;;;;;;;8.30;3.40;;;11.20;63.80;;;;;;5049616;28;48122;-64
2022/09/17 02:00:14;;;;;;;6.13;4.03;;;11.20;63.90;;;;;;5049460;28;46231;-64
2022/09/17 02:02:49;;;;;;;5.30;3.50;;;11.20;64.10;;;;;;5051366;28;46398;-64
2022/09/17 02:05:23;;;;;;;5.23;3.80;;;11.20;64.30;;;;;;5051087;28;46483;-64
2022/09/17 02:07:56;;;;;;;6.03;3.77;;;11.20;64.40;;;;;;5050807;28;47303;-64
2022/09/17 02:10:30;;;;;;;6.23;4.43;;;11.10;64.60;;;;;;5050196;28;45854;-65
2022/09/17 02:13:00;;;;;;;9.63;4.90;;;11.10;64.80;;;;;;5051981;28;46489;-64
2022/09/17 02:15:33;;;;;;;8.10;4.33;;;11.10;65.10;;;;;;5051612;28;46397;-65
2022/09/17 02:18:07;;;;;;;10.70;4.60;;;11.00;65.30;;;;;;5050382;28;47001;-64
2022/09/17 02:20:44;;;;;;;6.60;4.50;;;11.00;65.30;;;;;;5047080;28;46313;-65
2022/09/17 02:23:17;;;;;;;6.67;4.33;;;11.00;65.30;;;;;;5050227;28;45959;-63
2022/09/17 02:25:54;;;;;;;9.63;5.13;;;10.90;65.30;;;;;;5050414;28;46293;-63
2022/09/17 02:28:32;;;;;;;6.23;4.40;;;10.90;65.20;;;;;;5055500;28;46375;-64
2022/09/17 02:30:58;;;;;;;9.53;4.87;;;10.90;65.30;;;;;;5050049;28;46398;-64
2022/09/17 02:33:25;;;;;;;12.23;5.40;;;11.00;65.40;;;;;;5051180;28;46436;-63
2022/09/17 02:35:51;;;;;;;11.47;4.47;;;11.10;65.40;;;;;;5047413;28;46310;-63
2022/09/17 02:38:25;;;;;;;5.13;3.40;;;11.10;65.30;;;;;;5048833;28;48125;-64
2022/09/17 02:41:13;;;;;;;6.67;4.00;;;11.00;65.30;;;;;;5051471;28;45837;-64
2022/09/17 02:44:25;;;;;;;4.77;3.00;;;10.90;65.30;;;;;;5049487;28;46621;-64
2022/09/17 02:47:29;;;;;;;4.20;2.80;;;10.70;65.80;;;;;;5017614;28;45969;-64
2022/09/17 02:50:19;;;;;;;10.60;3.40;;;10.60;66.20;;;;;;5047493;28;47110;-64
2022/09/17 02:53:14;;;;;;;4.70;2.17;;;10.60;66.10;;;;;;5048273;28;46323;-63
2022/09/17 02:55:59;;;;;;;5.83;2.90;;;10.50;66.10;;;;;;5051043;28;46318;-64
2022/09/17 02:58:37;;;;;;;3.53;2.50;;;10.50;66.40;;;;;;5049436;28;45858;-64
2022/09/17 03:01:08;;;;;;;6.87;2.70;;;10.40;66.40;;;;;;5049128;28;47634;-65
2022/09/17 03:03:42;;;;;;;5.23;2.60;;;10.30;66.60;;;;;;5055166;28;46487;-64
2022/09/17 03:06:08;;;;;;;3.60;2.30;;;10.20;66.70;;;;;;5048590;28;46449;-64
2022/09/17 03:08:38;;;;;;;3.67;2.30;;;10.10;67.10;;;;;;5048971;28;45901;-64
2022/09/17 03:11:05;;;;;;;5.37;3.10;;;10.00;67.10;;;;;;5050059;28;47062;-63
2022/09/17 03:13:31;;;;;;;4.43;2.80;;;9.90;68.10;;;;;;5047716;28;46516;-65
2022/09/17 03:15:56;;;;;;;4.03;2.73;;;9.90;68.10;;;;;;5047205;28;46436;-63
2022/09/17 03:18:22;;;;;;;3.77;2.23;;;9.90;68.00;;;;;;5049874;28;46359;-63
2022/09/17 03:20:48;;;;;;;3.30;2.13;;;9.90;67.70;;;;;;5050188;28;47104;-63
2022/09/17 03:23:15;;;;;;;4.83;2.60;;;9.90;67.50;;;;;;5053126;28;46366;-63
2022/09/17 03:25:40;;;;;;;4.97;2.40;;;9.90;67.30;;;;;;5043847;28;46422;-64
2022/09/17 03:28:06;;;;;;;4.43;2.47;;;9.90;66.90;;;;;;5054399;28;46244;-64
2022/09/17 03:30:32;;;;;;;3.70;2.50;;;10.00;65.80;;;;;;5051196;28;47187;-64
2022/09/17 03:32:58;;;;;;;6.93;2.57;;;10.10;65.50;;;;;;5052338;28;46581;-64
2022/09/17 03:35:24;;;;;;;5.33;2.50;;;10.10;65.10;;;;;;5050808;28;45838;-64
2022/09/17 03:37:49;;;;;;;4.07;2.80;;;10.10;65.10;;;;;;5046658;28;46422;-64
2022/09/17 03:40:15;;;;;;;8.40;3.23;;;10.20;65.20;;;;;;5047028;28;47762;-63
2022/09/17 03:42:41;;;;;;;3.67;2.33;;;10.20;65.10;;;;;;5051771;28;46358;-64
2022/09/17 03:45:07;;;;;;;5.83;2.87;;;10.20;64.90;;;;;;5050745;28;46349;-64
2022/09/17 03:47:33;;;;;;;6.00;2.83;;;10.20;65.10;;;;;;5046213;28;46417;-64
2022/09/17 03:49:58;;;;;;;5.23;2.47;;;10.30;64.90;;;;;;5050839;28;47354;-64
2022/09/17 03:52:24;;;;;;;2.80;2.10;;;10.20;64.80;;;;;;5055689;28;46453;-64
2022/09/17 03:54:50;;;;;;;4.03;2.00;;;10.20;64.90;;;;;;5049764;28;46445;-63
2022/09/17 03:57:15;;;;;;;5.23;2.10;;;10.20;65.00;;;;;;5049119;28;46369;-64
2022/09/17 03:59:41;;;;;;;8.70;2.10;;;10.20;65.00;;;;;;5050374;28;46259;-65
2022/09/17 04:02:07;;;;;;;3.17;2.10;;;10.20;65.10;;;;;;5047118;28;46361;-65
2022/09/17 04:04:33;;;;;;;6.27;2.10;;;10.10;64.90;;;;;;5052343;28;46441;-65
2022/09/17 04:06:58;;;;;;;3.83;2.57;;;10.10;66.20;;;;;;5042895;28;46758;-64
2022/09/17 04:09:24;;;;;;;4.40;1.90;;;10.10;64.70;;;;;;5055163;28;47280;-63
2022/09/17 04:11:49;;;;;;;5.53;2.43;;;10.10;64.60;;;;;;5045545;28;46388;-64
2022/09/17 04:14:15;;;;;;;3.67;1.80;;;10.00;64.60;;;;;;5049006;28;45850;-63
2022/09/17 04:16:40;;;;;;;7.77;1.63;;;10.00;64.80;;;;;;5047145;28;46002;-64
2022/09/17 04:19:06;;;;;;;6.63;2.40;;;10.00;65.00;;;;;;5046589;28;47095;-64
2022/09/17 04:21:32;;;;;;;6.83;3.20;;;10.00;64.80;;;;;;5046463;28;45982;-64
2022/09/17 04:23:58;;;;;;;4.40;2.10;;;10.00;64.50;;;;;;5044987;28;46333;-63
2022/09/17 04:26:24;;;;;;;3.60;1.80;;;10.00;64.70;;;;;;5052222;28;46651;-63
2022/09/17 04:28:50;;;;;;;4.83;2.80;;;10.00;64.80;;;;;;5053264;28;47238;-63
2022/09/17 04:31:15;;;;;;;3.87;2.10;;;10.00;65.00;;;;;;5047680;28;46457;-63
2022/09/17 04:33:41;;;;;;;3.70;2.10;;;10.00;65.20;;;;;;5049949;28;46427;-64
2022/09/17 04:36:06;;;;;;;5.40;2.20;;;10.00;65.20;;;;;;5052595;28;46699;-62
2022/09/17 04:38:32;;;;;;;3.53;2.20;;;10.00;65.30;;;;;;5053031;28;47083;-64
2022/09/17 04:40:58;;;;;;;7.97;2.23;;;10.00;65.40;;;;;;5051811;28;46478;-63
2022/09/17 04:43:24;;;;;;;3.47;1.83;;;10.00;65.50;;;;;;5049156;28;46441;-63
2022/09/17 04:45:49;;;;;;;3.33;2.00;;;9.90;66.50;;;;;;5054053;28;46517;-63
2022/09/17 04:48:15;;;;;;;5.10;2.10;;;9.90;66.50;;;;;;5049341;28;47015;-62
2022/09/17 04:50:41;;;;;;;3.43;1.97;;;9.80;66.80;;;;;;5046921;28;45963;-65
2022/09/17 04:53:07;;;;;;;8.50;2.10;;;9.80;66.90;;;;;;5051387;28;46405;-65
2022/09/17 04:55:33;;;;;;;4.10;2.00;;;9.80;67.10;;;;;;5052757;28;46416;-64
2022/09/17 04:57:59;;;;;;;4.03;2.20;;;9.70;67.50;;;;;;5050647;28;46409;-63
2022/09/17 05:00:25;;;;;;;5.13;2.10;;;9.60;67.70;;;;;;5049120;28;46578;-64
2022/09/17 05:02:53;;;;;;;4.03;2.70;;;9.50;68.40;;;;;;5049854;28;46310;-64
2022/09/17 05:05:20;;;;;;;3.43;2.20;;;9.40;68.80;;;;;;5054407;28;46523;-63
2022/09/17 05:07:45;;;;;;;5.83;2.50;;;9.50;68.70;;;;;;5051033;28;46545;-65
2022/09/17 05:10:13;;;;;;;7.40;2.37;;;9.60;68.20;;;;;;5052017;28;46456;-64
2022/09/17 05:12:38;;;;;;;9.83;3.10;;;9.70;67.60;;;;;;5050692;28;46646;-63
2022/09/17 05:15:05;;;;;;;5.17;1.80;;;9.80;66.00;;;;;;5051954;28;45998;-63
2022/09/17 05:17:30;;;;;;;4.20;1.93;;;9.80;66.80;;;;;;5050723;28;46621;-63
2022/09/17 05:19:56;;;;;;;9.07;2.00;;;9.80;66.50;;;;;;5050022;28;46611;-63
2022/09/17 05:22:22;;;;;;;6.47;2.07;;;9.90;66.40;;;;;;5052478;28;46304;-63
2022/09/17 05:24:47;;;;;;;6.13;2.20;;;9.90;64.90;;;;;;5053478;28;46525;-64
2022/09/17 05:27:13;;;;;;;8.80;2.63;;;9.90;65.80;;;;;;5048156;28;46464;-64
2022/09/17 05:29:39;;;;;;;10.20;2.37;;;10.00;64.40;;;;;;5050248;28;46599;-64
2022/09/17 05:32:04;;;;;;;8.83;2.50;;;10.00;64.40;;;;;;5052053;28;46425;-63
2022/09/17 05:34:30;;;;;;;8.23;2.37;;;10.00;64.50;;;;;;5052778;28;46484;-63
2022/09/17 05:36:56;;;;;;;6.20;3.20;;;10.00;64.40;;;;;;5050200;28;48233;-63
2022/09/17 05:39:24;;;;;;;3.33;2.47;;;10.00;64.40;;;;;;5051616;28;46425;-64
2022/09/17 05:41:51;;;;;;;7.00;2.93;;;10.20;64.60;;;;;;5050836;28;46412;-63
2022/09/17 05:44:17;;;;;;;7.77;2.50;;;10.30;64.70;;;;;;5051166;28;46693;-65
2022/09/17 05:46:43;;;;;;;5.10;2.80;;;10.40;64.20;;;;;;5046155;28;46667;-64
2022/09/17 05:49:08;;;;;;;6.37;2.60;;;10.40;64.30;;;;;;5050538;28;46323;-66
2022/09/17 05:51:34;;;;;;;5.63;3.03;;;10.40;64.50;;;;;;5047653;28;47283;-64
2022/09/17 05:54:00;;;;;;;5.20;2.53;;;10.40;64.70;;;;;;5051228;28;46489;-63
2022/09/17 05:56:25;;;;;;;7.10;2.33;;;10.40;64.70;;;;;;5049655;28;47330;-63
2022/09/17 05:58:55;;;;;;;4.17;2.27;;;10.40;64.80;;;;;;5051688;28;45824;-64
2022/09/17 06:01:21;;;;;;;4.50;2.47;;;10.40;64.80;;;;;;5058919;28;46673;-63
2022/09/17 06:03:47;;;;;;;5.90;1.90;;;10.40;64.80;;;;;;5050349;28;46401;-61
2022/09/17 06:06:12;;;;;;;5.03;2.30;;;10.40;64.80;;;;;;5054070;28;47371;-64
2022/09/17 06:08:38;;;;;;;4.27;1.97;;;10.40;64.70;;;;;;5055292;28;46419;-64
2022/09/17 06:11:07;;;;;;;5.40;2.43;;;10.40;64.60;;;;;;5048453;28;46834;-64
2022/09/17 06:13:34;;;;;;;11.50;2.40;;;10.60;64.30;;;;;;5053296;28;45922;-63
2022/09/17 06:16:00;;;;;;;5.37;2.07;;;10.60;64.00;;;;;;5053278;28;46666;-64
2022/09/17 06:18:28;;;;;;;3.00;1.70;;;10.60;64.00;;;;;;5048259;28;46619;-63
2022/09/17 06:21:02;;;;;;;5.13;2.10;;;10.70;63.80;;;;;;5050780;28;46453;-62
2022/09/17 06:23:33;;;;;;;8.30;2.63;;;10.70;63.80;;;;;;5047395;28;45862;-64
2022/09/17 06:26:01;;;;;;;3.30;2.20;;;10.70;63.80;;;;;;5051839;28;46531;-63
2022/09/17 06:28:28;;;;;;;3.83;1.80;;;10.60;63.90;;;;;;5049058;28;46417;-64
2022/09/17 06:30:56;;;;;;;2.97;2.00;;;10.60;64.10;;;;;;5051687;28;46496;-65
2022/09/17 06:33:22;;;;;;;10.47;2.17;;;10.50;64.10;;;;;;5050688;28;46457;-64
2022/09/17 06:35:48;;;;;;;4.93;1.93;;;10.50;64.30;;;;;;5054662;28;46599;-64
2022/09/17 06:38:14;;;;;;;3.50;1.87;;;10.50;63.90;;;;;;5048226;28;46505;-64
2022/09/17 06:40:40;;;;;;;5.53;1.70;;;10.50;64.00;;;;;;5049186;28;46411;-66
2022/09/17 06:43:06;;;;;;;2.90;1.70;;;10.50;64.00;;;;;;5049498;28;46374;-64
2022/09/17 06:45:36;;;;;;;5.13;1.80;;;10.50;63.80;;;;;;5050387;28;47007;-62
2022/09/17 06:48:04;;;;;;;4.50;2.00;;;10.60;63.60;;;;;;5050896;28;46370;-63
2022/09/17 06:50:30;;;;;;;5.30;1.93;;;10.60;63.40;;;;;;5050532;28;46376;-64
2022/09/17 06:52:55;;;;;;;7.93;1.90;;;10.60;63.10;;;;;;5047499;28;46646;-64
2022/09/17 06:55:21;;;;;;;6.80;2.30;;;10.50;63.10;;;;;;5049710;28;46054;-63
2022/09/17 06:57:47;;;;;;;4.60;2.27;;;10.60;63.20;;;;;;5044847;28;46371;-64
2022/09/17 07:00:14;;;;;;;12.20;2.43;;;10.60;62.90;;;;;;5050431;28;46203;-64
2022/09/17 07:02:40;;;;;;;4.90;2.03;;;10.60;62.80;;;;;;5045443;28;46514;-65
2022/09/17 07:05:06;;;;;;;8.80;2.03;;;10.60;61.60;;;;;;5052104;28;46937;-64
2022/09/17 07:07:34;;;;;;;6.00;2.03;;;10.60;62.40;;;;;;5046037;28;46372;-65
2022/09/17 07:10:00;;;;;;;6.40;2.20;;;10.70;62.40;;;;;;5048759;28;46698;-65
2022/09/17 07:12:26;;;;;;;3.13;1.87;;;10.80;62.20;;;;;;5047759;28;46357;-63
2022/09/17 07:14:52;;;;;;;9.90;2.20;;;11.00;61.00;;;;;;5045580;28;47534;-65
2022/09/17 07:17:17;;;;;;;4.30;1.90;;;11.00;61.90;;;;;;5050853;28;45902;-64
2022/09/17 07:19:43;;;;;;;7.00;1.73;;;11.10;61.70;;;;;;5046472;28;46434;-64
2022/09/17 07:22:08;;;;;;;4.43;1.70;;;11.30;61.20;;;;;;5050868;28;46470;-64
2022/09/17 07:24:34;;;;;;;5.07;1.90;;;11.60;60.60;;;;;;5048136;28;46165;-65
2022/09/17 07:27:00;;;;;;;4.37;2.10;;;11.90;59.00;;;;;;5047914;28;46652;-65
2022/09/17 07:29:26;;;;;;;9.93;2.50;;;12.10;59.60;;;;;;5047732;28;45810;-65
2022/09/17 07:31:53;;;;;;;10.67;3.27;;;12.20;59.10;;;;;;5049649;28;46370;-65
2022/09/17 07:34:19;;;;;;;8.40;1.60;;;12.20;58.10;;;;;;5052310;28;46392;-63
2022/09/17 07:36:45;;;;;;;9.30;1.90;;;12.30;57.80;;;;;;5049365;28;46828;-64
2022/09/17 07:39:12;;;;;;;4.93;1.70;;;12.40;57.90;;;;;;5047981;28;46527;-65
2022/09/17 07:41:38;;;;;;;6.27;1.90;;;12.50;58.00;;;;;;5048703;28;46444;-64
2022/09/17 07:44:05;;;;;;;4.80;1.87;;;12.60;58.20;;;;;;5049529;28;48297;-63
2022/09/17 07:46:33;;;;;;;7.57;1.97;;;12.50;57.60;;;;;;5047519;28;46439;-62
2022/09/17 07:48:59;;;;;;;6.20;1.93;;;12.30;58.00;;;;;;5049772;28;46401;-65
2022/09/17 07:51:29;;;;;;;7.33;1.90;;;12.20;57.90;;;;;;5054035;28;46344;-63
2022/09/17 07:53:56;;;;;;;7.57;2.30;;;12.20;57.90;;;;;;5047574;28;46477;-63
2022/09/17 07:56:23;;;;;;;9.00;1.80;;;12.10;57.20;;;;;;5045011;28;46872;-65
2022/09/17 07:58:49;;;;;;;9.60;2.10;;;11.90;57.10;;;;;;5045644;28;46280;-65
2022/09/17 08:01:16;;;;;;;7.43;2.00;;;11.80;56.90;;;;;;5051395;28;46452;-64
2022/09/17 08:03:42;;;;;;;5.20;1.90;;;12.00;57.00;;;;;;5057159;28;49240;-65
2022/09/17 08:06:13;;;;;;;5.90;1.60;;;12.20;56.60;;;;;;5044639;28;46506;-65
2022/09/17 08:08:40;;;;;;;5.23;1.97;;;12.20;56.40;;;;;;5053558;28;46243;-64
2022/09/17 08:11:07;;;;;;;2.53;1.47;;;12.40;56.30;;;;;;5045629;28;46295;-64
2022/09/17 08:13:33;;;;;;;5.67;1.97;;;12.60;55.70;;;;;;5048274;28;47832;-65
2022/09/17 08:16:05;;;;;;;6.00;1.60;;;12.50;55.00;;;;;;5048327;28;46200;-64
2022/09/17 08:18:31;;;;;;;3.03;1.40;;;12.40;54.70;;;;;;5049250;28;46401;-65
2022/09/17 08:21:03;;;;;;;3.87;1.47;;;12.40;53.80;;;;;;5044898;28;46463;-65
2022/09/17 08:23:29;;;;;;;7.30;1.63;;;12.50;54.00;;;;;;5046525;28;48181;-66
2022/09/17 08:25:57;;;;;;;9.30;2.30;;;12.40;53.30;;;;;;5048271;28;46418;-63
2022/09/17 08:28:24;;;;;;;7.27;1.80;;;12.40;52.90;;;;;;5046455;28;46376;-64
2022/09/17 08:30:51;;;;;;;5.23;1.90;;;12.60;52.20;;;;;;5047521;28;46528;-63
2022/09/17 08:33:17;;;;;;;8.83;1.83;;;12.80;51.60;;;;;;5047779;28;48298;-65
2022/09/17 08:35:53;;;;;;;4.23;1.60;;;12.80;51.60;;;;;;5047051;28;46235;-63
2022/09/17 08:38:19;;;;;;;9.30;1.50;;;12.70;51.70;;;;;;5045938;28;46591;-64
2022/09/17 08:41:13;;;;;;;3.30;1.63;;;12.30;51.90;;;;;;5049151;28;46341;-64
2022/09/17 08:43:59;;;;;;;8.90;2.27;;;12.20;51.50;;;;;;5049299;28;46484;-63
2022/09/17 08:46:25;;;;;;;3.30;1.50;;;12.10;50.50;;;;;;5037671;28;46624;-63
2022/09/17 08:49:14;;;;;;;2.90;1.43;;;12.20;50.30;;;;;;5047821;28;46346;-63
2022/09/17 08:51:57;;;;;;;3.63;1.13;;;12.30;49.90;;;;;;5045897;28;46445;-64
2022/09/17 08:54:45;;;;;;;4.97;1.80;;;12.50;50.40;;;;;;5046059;28;47293;-64
2022/09/17 08:57:37;;;;;;;7.27;1.60;;;12.50;49.60;;;;;;5048760;28;46417;-64
2022/09/17 09:00:09;;;;;;;7.27;1.37;;;12.60;50.40;;;;;;5047486;28;46272;-65
2022/09/17 09:03:12;;;;;;;6.80;1.47;;;12.40;48.80;;;;;;5047839;28;46369;-64
2022/09/17 09:05:47;;;;;;;5.10;1.70;;;12.30;49.00;;;;;;5047502;28;47110;-64
2022/09/17 09:08:19;;;;;;;6.57;1.83;;;12.70;48.80;;;;;;5051317;28;46415;-64
2022/09/17 09:11:01;;;;;;;4.20;1.30;;;12.90;48.20;;;;;;5052879;28;46410;-63
2022/09/17 09:13:42;;;;;;;7.03;1.43;;;13.10;47.70;;;;;;5050216;28;46280;-64
2022/09/17 09:16:19;;;;;;;4.93;1.50;;;13.30;47.40;;;;;;5044259;28;49005;-64
2022/09/17 09:18:49;;;;;;;9.40;1.90;;;13.50;47.00;;;;;;5048033;28;46657;-64
2022/09/17 09:21:27;;;;;;;5.70;1.60;;;13.40;46.20;;;;;;5051305;28;46358;-63
2022/09/17 09:24:06;;;;;;;14.73;1.87;;;13.20;46.00;;;;;;5050028;28;46501;-64
2022/09/17 09:26:35;;;;;;;7.90;1.90;;;13.10;46.60;;;;;;5052115;28;48098;-63
2022/09/17 09:29:29;;;;;;;4.73;1.27;;;13.10;47.00;;;;;;5051488;28;46440;-64
2022/09/17 09:32:08;;;;;;;7.53;1.73;;;12.80;47.40;;;;;;5058241;28;45834;-64
2022/09/17 09:34:35;;;;;;;17.13;1.80;;;12.80;48.30;;;;;;5051373;28;46383;-65
2022/09/17 09:37:13;;;;;;;6.17;1.53;;;12.50;47.20;;;;;;5050705;28;45939;-64
2022/09/17 09:39:41;;;;;;;9.03;1.70;;;12.30;48.30;;;;;;5059887;28;46689;-64
2022/09/17 09:42:29;;;;;;;10.97;2.40;;;12.10;48.80;;;;;;5051800;28;46433;-64
2022/09/17 09:45:01;;;;;;;5.63;1.57;;;12.30;49.40;;;;;;5050088;28;45834;-64
2022/09/17 09:47:37;;;;;;;14.20;1.93;;;12.50;49.30;;;;;;5050380;28;46662;-65
2022/09/17 09:50:21;;;;;;;6.87;1.60;;;12.60;49.10;;;;;;5049804;28;46623;-64
2022/09/17 09:53:08;;;;;;;12.17;2.40;;;12.60;49.30;;;;;;5052891;28;46486;-64
2022/09/17 09:56:09;;;;;;;9.07;2.10;;;12.70;49.30;;;;;;5048777;28;46341;-64
2022/09/17 09:58:39;;;;;;;5.90;1.83;;;12.80;49.00;;;;;;5041721;28;47227;-64
2022/09/17 10:01:19;;;;;;;9.00;1.53;;;12.60;48.80;;;;;;5048885;28;45912;-65
2022/09/17 10:03:45;;;;;;;8.73;2.07;;;12.50;49.40;;;;;;5048636;28;45930;-65
2022/09/17 10:06:13;;;;;;;5.90;1.97;;;12.60;49.80;;;;;;5057469;28;46468;-64
2022/09/17 10:09:03;;;;;;;10.00;1.50;;;12.40;49.60;;;;;;5053536;28;46467;-65
2022/09/17 10:11:34;;;;;;;5.63;1.70;;;12.20;49.80;;;;;;5051508;28;46449;-64
2022/09/17 10:14:24;;;;;;;5.33;1.60;;;12.00;50.20;;;;;;5047816;28;46377;-64
2022/09/17 10:17:25;;;;;;;7.60;1.80;;;11.80;51.20;;;;;;5052106;28;46464;-64
2022/09/17 10:20:10;;;;;;;5.87;1.83;;;11.70;51.80;;;;;;5053193;28;46400;-65
2022/09/17 10:22:38;;;;;;;3.93;1.83;;;11.60;52.30;;;;;;5053966;28;46444;-65
2022/09/17 10:25:17;;;;;;;5.93;1.90;;;11.40;52.90;;;;;;5046609;28;46396;-65
2022/09/17 10:27:44;;;;;;;7.00;1.87;;;11.20;54.30;;;;;;5058735;28;46499;-65
2022/09/17 10:30:15;;;;;;;5.50;1.77;;;11.00;55.40;;;;;;5051125;28;46470;-63
2022/09/17 10:32:42;;;;;;;6.80;1.60;;;11.10;55.70;;;;;;5049031;28;46413;-63
2022/09/17 10:35:17;;;;;;;5.60;2.07;;;11.10;55.60;;;;;;5048618;28;46480;-64
2022/09/17 10:37:47;;;;;;;7.53;2.20;;;11.30;55.30;;;;;;5055561;28;46492;-63
2022/09/17 10:40:18;;;;;;;9.73;2.00;;;11.60;54.40;;;;;;5050614;28;47124;-63
2022/09/17 10:42:48;;;;;;;5.03;1.80;;;12.00;53.50;;;;;;5048693;28;46437;-64
2022/09/17 10:45:25;;;;;;;4.23;1.50;;;12.20;53.70;;;;;;5052435;28;46405;-63
2022/09/17 10:47:52;;;;;;;5.97;1.33;;;12.30;53.80;;;;;;5055438;28;46355;-64
2022/09/17 10:50:21;;;;;;;5.50;1.33;;;12.30;53.80;;;;;;5050244;28;46053;-64
2022/09/17 10:52:51;;;;;;;2.00;1.13;;;12.10;54.60;;;;;;5060827;28;46411;-65
2022/09/17 10:55:21;;;;;;;6.13;1.50;;;12.10;54.40;;;;;;5051588;28;45879;-64
2022/09/17 10:58:04;;;;;;;2.13;1.40;;;12.20;54.30;;;;;;5048208;28;46299;-67
2022/09/17 11:00:39;;;;;;;4.97;1.80;;;12.40;53.80;;;;;;5045274;28;46195;-64
2022/09/17 11:03:23;;;;;;;4.53;1.40;;;12.60;54.00;;;;;;5049560;28;45759;-64
2022/09/17 11:06:07;;;;;;;2.80;0.93;;;12.60;54.00;;;;;;5048311;28;46559;-64
2022/09/17 11:08:45;;;;;;;3.73;1.13;;;12.80;54.20;;;;;;5055179;28;46396;-65
2022/09/17 11:11:51;;;;;;;3.97;1.07;;;13.00;53.10;;;;;;5050822;28;47192;-64
2022/09/17 11:14:38;;;;;;;2.60;1.20;;;13.10;52.10;;;;;;5052751;28;46223;-63
2022/09/17 11:17:30;;;;;;;5.63;1.50;;;13.30;51.10;;;;;;5048734;28;46413;-64
2022/09/17 11:20:26;;;;;;;3.60;0.90;;;13.50;50.90;;;;;;5058134;28;46501;-64
2022/09/17 11:23:19;;;;;;;3.00;1.10;;;13.70;50.60;;;;;;5045683;28;47178;-64
2022/09/17 11:25:57;;;;;;;6.50;1.33;;;13.80;49.30;;;;;;5048561;28;46453;-63
2022/09/17 11:28:51;;;;;;;3.50;1.00;;;13.40;49.10;;;;;;5047469;28;46393;-64
2022/09/17 11:31:17;;;;;;;3.30;1.10;;;13.20;49.00;;;;;;5052532;28;46289;-65
2022/09/17 11:33:48;;;;;;;3.30;1.20;;;13.00;49.20;;;;;;5046235;28;46704;-64
2022/09/17 11:36:20;;;;;;;5.30;1.10;;;13.20;49.30;;;;;;5047501;28;46552;-64
2022/09/17 11:38:50;;;;;;;4.00;1.40;;;13.20;49.00;;;;;;5049664;28;46439;-64
2022/09/17 11:41:26;;;;;;;4.30;1.20;;;13.60;48.70;;;;;;5064722;27;46376;-64
2022/09/17 11:44:17;;;;;;;3.93;1.07;;;13.60;48.00;;;;;;5047690;28;47444;-64
2022/09/17 11:46:52;;;;;;;5.33;1.30;;;13.40;48.50;;;;;;5047614;28;46707;-64
2022/09/17 11:49:45;;;;;;;3.30;1.30;;;13.50;48.80;;;;;;5048363;28;46314;-66
2022/09/17 11:52:33;;;;;;;4.87;1.50;;;13.50;47.70;;;;;;5052502;28;46444;-64
2022/09/17 11:55:30;;;;;;;1.70;1.00;;;13.80;47.20;;;;;;5052219;28;47134;-63
2022/09/17 11:58:01;;;;;;;5.00;1.40;;;13.80;48.10;;;;;;5041215;28;46215;-63
2022/09/17 12:00:30;;;;;;;7.63;1.30;;;13.70;48.30;;;;;;5046153;28;46319;-64
2022/09/17 12:03:19;;;;;;;2.50;0.97;;;13.90;48.70;;;;;;5047539;28;46327;-64
2022/09/17 12:05:55;;;;;;;3.33;1.03;;;14.10;48.60;;;;;;5054031;28;47153;-64
2022/09/17 12:08:24;;;;;;;6.13;1.07;;;13.90;47.20;;;;;;5047696;28;46455;-64
2022/09/17 12:11:01;;;;;;;11.83;1.30;;;14.10;46.50;;;;;;5048912;28;46683;-64
2022/09/17 12:13:40;;;;;;;5.53;1.20;;;13.90;45.40;;;;;;5051646;28;46385;-64
2022/09/17 12:16:26;;;;;;;3.50;1.20;;;13.80;45.40;;;;;;5048927;28;46504;-64
2022/09/17 12:19:10;;;;;;;4.00;0.97;;;14.10;44.60;;;;;;5046530;28;45875;-64
2022/09/17 12:21:48;;;;;;;13.80;1.70;;;14.60;44.60;;;;;;5047286;28;46470;-63
2022/09/17 12:24:28;;;;;;;4.13;1.30;;;14.10;42.20;;;;;;5049717;28;46457;-64
2022/09/17 12:27:12;;;;;;;4.57;1.50;;;13.90;42.60;;;;;;5054459;28;47230;-64
2022/09/17 12:30:05;;;;;;;2.73;1.10;;;13.80;42.70;;;;;;5055881;28;45883;-64
2022/09/17 12:32:58;;;;;;;6.93;1.20;;;13.80;44.20;;;;;;5048368;28;46359;-64
2022/09/17 12:35:37;;;;;;;5.03;1.10;;;13.60;43.70;;;;;;5046742;28;46393;-64
2022/09/17 12:38:46;;;;;;;2.87;1.50;;;13.50;44.10;;;;;;5049503;28;48316;-64
2022/09/17 12:41:31;;;;;;;2.93;1.20;;;13.40;43.80;;;;;;5043605;28;46449;-65
2022/09/17 12:44:05;;;;;;;5.30;1.40;;;13.70;42.40;;;;;;5056206;28;46393;-63
2022/09/17 12:46:33;;;;;;;9.33;1.47;;;13.70;41.80;;;;;;5046498;28;46589;-64
2022/09/17 12:49:06;;;;;;;3.77;1.33;;;13.90;42.00;;;;;;5043843;28;46991;-64
2022/09/17 12:51:31;;;;;;;3.97;1.10;;;14.30;41.30;;;;;;5045382;28;46728;-63
2022/09/17 12:53:57;;;;;;;6.60;1.47;;;14.60;40.00;;;;;;5046127;28;46455;-64
2022/09/17 12:56:50;;;;;;;3.60;1.43;;;14.70;38.90;;;;;;5050797;28;46298;-64
2022/09/17 12:59:19;;;;;;;4.17;1.60;;;14.50;38.40;;;;;;5053988;28;47226;-64
2022/09/17 13:02:03;;;;;;;3.10;1.30;;;14.10;39.20;;;;;;5050981;28;46231;-64
2022/09/17 13:04:28;;;;;;;5.77;1.80;;;13.90;40.10;;;;;;5049619;28;46464;-65
2022/09/17 13:07:12;;;;;;;4.03;1.20;;;13.70;41.70;;;;;;5046864;28;46413;-62
2022/09/17 13:10:04;;;;;;;3.60;1.83;;;13.70;41.80;;;;;;5052944;28;47081;-63
2022/09/17 13:12:54;;;;;;;2.60;0.90;;;13.80;41.50;;;;;;5060776;28;46911;-63
2022/09/17 13:15:46;;;;;;;3.30;1.00;;;14.10;39.20;;;;;;5058995;28;46304;-62
2022/09/17 13:18:28;;;;;;;3.60;1.03;;;14.20;38.20;;;;;;5034188;28;46481;-62